sensor_id;sensor_type;location;lat;lon;timestamp;pressure;altitude;pressure_sealevel;temperature
41654;BMP280;30790;52.030;7.110;2022-11-06T00:02:23;100774.22;;;20.38
41654;BMP280;30790;52.030;7.110;2022-11-06T00:04:48;100781.00;;;20.36
41654;BMP280;30790;52.030;7.110;2022-11-06T00:07:13;100782.88;;;20.35
41654;BMP280;30790;52.030;7.110;2022-11-06T00:09:38;100780.28;;;20.41
41654;BMP280;30790;52.030;7.110;2022-11-06T00:12:04;100758.59;;;20.34
41654;BMP280;30790;52.030;7.110;2022-11-06T00:14:29;100774.97;;;20.34
41654;BMP280;30790;52.030;7.110;2022-11-06T00:16:55;100779.00;;;20.31
41654;BMP280;30790;52.030;7.110;2022-11-06T00:19:20;100780.75;;;20.37
41654;BMP280;30790;52.030;7.110;2022-11-06T00:21:45;100776.28;;;20.31
41654;BMP280;30790;52.030;7.110;2022-11-06T00:24:12;100787.75;;;20.33
41654;BMP280;30790;52.030;7.110;2022-11-06T00:26:38;100784.44;;;20.31
41654;BMP280;30790;52.030;7.110;2022-11-06T00:29:04;100787.75;;;20.33
41654;BMP280;30790;52.030;7.110;2022-11-06T00:31:35;100785.88;;;20.34
41654;BMP280;30790;52.030;7.110;2022-11-06T00:34:03;100788.00;;;20.32
41654;BMP280;30790;52.030;7.110;2022-11-06T00:36:29;100769.66;;;20.27
41654;BMP280;30790;52.030;7.110;2022-11-06T00:38:56;100761.25;;;20.29
41654;BMP280;30790;52.030;7.110;2022-11-06T00:41:22;100774.50;;;20.25
41654;BMP280;30790;52.030;7.110;2022-11-06T00:43:49;100773.31;;;20.33
41654;BMP280;30790;52.030;7.110;2022-11-06T00:46:15;100761.31;;;20.34
41654;BMP280;30790;52.030;7.110;2022-11-06T00:48:41;100763.47;;;20.32
41654;BMP280;30790;52.030;7.110;2022-11-06T00:51:10;100745.34;;;20.26
41654;BMP280;30790;52.030;7.110;2022-11-06T00:53:36;100755.78;;;20.29
41654;BMP280;30790;52.030;7.110;2022-11-06T00:56:13;100758.50;;;20.29
41654;BMP280;30790;52.030;7.110;2022-11-06T00:58:39;100757.91;;;20.27
41654;BMP280;30790;52.030;7.110;2022-11-06T01:01:16;100764.34;;;20.21
41654;BMP280;30790;52.030;7.110;2022-11-06T01:03:43;100768.13;;;20.20
41654;BMP280;30790;52.030;7.110;2022-11-06T01:06:15;100764.91;;;20.23
41654;BMP280;30790;52.030;7.110;2022-11-06T01:08:41;100757.22;;;20.20
41654;BMP280;30790;52.030;7.110;2022-11-06T01:11:16;100760.63;;;20.27
41654;BMP280;30790;52.030;7.110;2022-11-06T01:13:43;100767.31;;;20.19
41654;BMP280;30790;52.030;7.110;2022-11-06T01:16:10;100763.00;;;20.23
41654;BMP280;30790;52.030;7.110;2022-11-06T01:18:36;100758.22;;;20.14
41654;BMP280;30790;52.030;7.110;2022-11-06T01:21:04;100743.50;;;20.15
41654;BMP280;30790;52.030;7.110;2022-11-06T01:23:30;100737.72;;;20.11
41654;BMP280;30790;52.030;7.110;2022-11-06T01:26:00;100744.25;;;20.10
41654;BMP280;30790;52.030;7.110;2022-11-06T01:28:26;100748.13;;;20.14
41654;BMP280;30790;52.030;7.110;2022-11-06T01:30:52;100748.97;;;20.15
41654;BMP280;30790;52.030;7.110;2022-11-06T01:33:18;100745.16;;;20.16
41654;BMP280;30790;52.030;7.110;2022-11-06T01:35:48;100737.56;;;20.18
41654;BMP280;30790;52.030;7.110;2022-11-06T01:38:14;100743.50;;;20.15
41654;BMP280;30790;52.030;7.110;2022-11-06T01:40:45;100737.06;;;20.21
41654;BMP280;30790;52.030;7.110;2022-11-06T01:43:14;100740.94;;;20.08
41654;BMP280;30790;52.030;7.110;2022-11-06T01:45:42;100739.63;;;20.11
41654;BMP280;30790;52.030;7.110;2022-11-06T01:48:08;100729.63;;;20.16
41654;BMP280;30790;52.030;7.110;2022-11-06T01:50:34;100727.06;;;20.10
41654;BMP280;30790;52.030;7.110;2022-11-06T01:53:00;100720.53;;;20.11
41654;BMP280;30790;52.030;7.110;2022-11-06T01:55:29;100714.59;;;20.14
41654;BMP280;30790;52.030;7.110;2022-11-06T01:57:56;100712.94;;;20.13
41654;BMP280;30790;52.030;7.110;2022-11-06T02:00:24;100700.88;;;20.09
41654;BMP280;30790;52.030;7.110;2022-11-06T02:02:50;100696.03;;;20.11
41654;BMP280;30790;52.030;7.110;2022-11-06T02:05:16;100703.78;;;20.19
41654;BMP280;30790;52.030;7.110;2022-11-06T02:07:42;100698.59;;;20.17
41654;BMP280;30790;52.030;7.110;2022-11-06T02:10:09;100695.44;;;20.09
41654;BMP280;30790;52.030;7.110;2022-11-06T02:12:56;100695.44;;;20.09
41654;BMP280;30790;52.030;7.110;2022-11-06T02:18:25;100695.69;;;20.07
41654;BMP280;30790;52.030;7.110;2022-11-06T02:24:19;100690.66;;;20.16
41654;BMP280;30790;52.030;7.110;2022-11-06T02:26:56;100689.59;;;20.17
41654;BMP280;30790;52.030;7.110;2022-11-06T02:31:58;100675.03;;;20.11
41654;BMP280;30790;52.030;7.110;2022-11-06T02:34:28;100681.72;;;20.03
41654;BMP280;30790;52.030;7.110;2022-11-06T02:37:00;100686.53;;;20.13
41654;BMP280;30790;52.030;7.110;2022-11-06T02:39:28;100682.06;;;20.07
41654;BMP280;30790;52.030;7.110;2022-11-06T02:41:55;100681.81;;;20.09
41654;BMP280;30790;52.030;7.110;2022-11-06T02:44:25;100681.41;;;20.17
41654;BMP280;30790;52.030;7.110;2022-11-06T02:46:55;100668.09;;;20.03
41654;BMP280;30790;52.030;7.110;2022-11-06T02:49:33;100673.22;;;20.17
41654;BMP280;30790;52.030;7.110;2022-11-06T02:52:07;100677.44;;;20.08
41654;BMP280;30790;52.030;7.110;2022-11-06T02:54:38;100671.91;;;20.02
41654;BMP280;30790;52.030;7.110;2022-11-06T02:57:09;100681.22;;;20.06
41654;BMP280;30790;52.030;7.110;2022-11-06T02:59:56;100675.53;;;20.08
41654;BMP280;30790;52.030;7.110;2022-11-06T03:02:32;100671.91;;;20.02
41654;BMP280;30790;52.030;7.110;2022-11-06T03:05:16;100663.03;;;19.95
41654;BMP280;30790;52.030;7.110;2022-11-06T03:14:05;100651.88;;;19.97
41654;BMP280;30790;52.030;7.110;2022-11-06T03:16:43;100649.97;;;19.97
41654;BMP280;30790;52.030;7.110;2022-11-06T03:19:28;100650.09;;;20.02
41654;BMP280;30790;52.030;7.110;2022-11-06T03:27:24;100651.56;;;19.93
41654;BMP280;30790;52.030;7.110;2022-11-06T03:30:02;100636.84;;;19.94
41654;BMP280;30790;52.030;7.110;2022-11-06T03:35:23;100655.69;;;19.96
41654;BMP280;30790;52.030;7.110;2022-11-06T03:38:00;100651.06;;;19.96
41654;BMP280;30790;52.030;7.110;2022-11-06T03:40:31;100633.63;;;19.97
41654;BMP280;30790;52.030;7.110;2022-11-06T03:43:02;100627.84;;;19.94
41654;BMP280;30790;52.030;7.110;2022-11-06T03:45:29;100642.06;;;19.96
41654;BMP280;30790;52.030;7.110;2022-11-06T03:48:08;100633.47;;;19.87
41654;BMP280;30790;52.030;7.110;2022-11-06T03:51:05;100643.88;;;19.90
41654;BMP280;30790;52.030;7.110;2022-11-06T03:53:48;100649.97;;;19.97
41654;BMP280;30790;52.030;7.110;2022-11-06T03:56:24;100653.78;;;19.96
41654;BMP280;30790;52.030;7.110;2022-11-06T03:58:50;100635.78;;;19.95
41654;BMP280;30790;52.030;7.110;2022-11-06T04:01:20;100647.66;;;19.89
41654;BMP280;30790;52.030;7.110;2022-11-06T04:03:57;100654.28;;;19.93
41654;BMP280;30790;52.030;7.110;2022-11-06T04:06:34;100648.25;;;19.91
41654;BMP280;30790;52.030;7.110;2022-11-06T04:09:02;100654.28;;;19.93
41654;BMP280;30790;52.030;7.110;2022-11-06T04:11:47;100645.03;;;19.94
41654;BMP280;30790;52.030;7.110;2022-11-06T04:14:34;100644.06;;;20.00
41654;BMP280;30790;52.030;7.110;2022-11-06T04:17:04;100640.84;;;20.03
41654;BMP280;30790;52.030;7.110;2022-11-06T04:19:30;100639.19;;;20.02
41654;BMP280;30790;52.030;7.110;2022-11-06T04:22:11;100641.44;;;20.05
41654;BMP280;30790;52.030;7.110;2022-11-06T04:24:54;100640.94;;;20.09
41654;BMP280;30790;52.030;7.110;2022-11-06T04:28:11;100650.28;;;20.13
41654;BMP280;30790;52.030;7.110;2022-11-06T04:34:24;100641.03;;;20.14
41654;BMP280;30790;52.030;7.110;2022-11-06T04:37:20;100628.72;;;20.11
41654;BMP280;30790;52.030;7.110;2022-11-06T04:43:12;100622.28;;;20.17
41654;BMP280;30790;52.030;7.110;2022-11-06T04:45:39;100621.44;;;20.17
41654;BMP280;30790;52.030;7.110;2022-11-06T04:48:07;100612.69;;;20.15
41654;BMP280;30790;52.030;7.110;2022-11-06T04:50:39;100608.91;;;20.16
41654;BMP280;30790;52.030;7.110;2022-11-06T04:53:07;100601.06;;;20.19
41654;BMP280;30790;52.030;7.110;2022-11-06T04:55:58;100598.56;;;20.18
41654;BMP280;30790;52.030;7.110;2022-11-06T04:58:24;100606.75;;;20.18
41654;BMP280;30790;52.030;7.110;2022-11-06T05:00:50;100600.47;;;20.17
41654;BMP280;30790;52.030;7.110;2022-11-06T05:03:16;100600.81;;;20.21
41654;BMP280;30790;52.030;7.110;2022-11-06T05:05:42;100582.72;;;20.15
41654;BMP280;30790;52.030;7.110;2022-11-06T05:08:13;100584.94;;;20.18
41654;BMP280;30790;52.030;7.110;2022-11-06T05:10:40;100592.63;;;20.21
41654;BMP280;30790;52.030;7.110;2022-11-06T05:13:05;100584.13;;;20.17
41654;BMP280;30790;52.030;7.110;2022-11-06T05:15:31;100581.16;;;20.19
41654;BMP280;30790;52.030;7.110;2022-11-06T05:17:56;100579.50;;;20.18
41654;BMP280;30790;52.030;7.110;2022-11-06T05:20:22;100566.28;;;20.10
41654;BMP280;30790;52.030;7.110;2022-11-06T05:22:47;100571.75;;;20.10
41654;BMP280;30790;52.030;7.110;2022-11-06T05:25:35;100580.00;;;20.15
41654;BMP280;30790;52.030;7.110;2022-11-06T05:28:02;100581.88;;;20.14
41654;BMP280;30790;52.030;7.110;2022-11-06T05:30:30;100571.25;;;20.13
41654;BMP280;30790;52.030;7.110;2022-11-06T05:32:55;100563.63;;;20.15
41654;BMP280;30790;52.030;7.110;2022-11-06T05:35:21;100550.44;;;20.06
41654;BMP280;30790;52.030;7.110;2022-11-06T05:37:46;100564.72;;;20.14
41654;BMP280;30790;52.030;7.110;2022-11-06T05:40:12;100551.84;;;20.09
41654;BMP280;30790;52.030;7.110;2022-11-06T05:42:41;100553.81;;;20.14
41654;BMP280;30790;52.030;7.110;2022-11-06T05:45:08;100558.13;;;20.10
41654;BMP280;30790;52.030;7.110;2022-11-06T05:47:34;100561.66;;;20.10
41654;BMP280;30790;52.030;7.110;2022-11-06T05:50:00;100564.97;;;20.12
41654;BMP280;30790;52.030;7.110;2022-11-06T05:52:26;100544.50;;;20.10
41654;BMP280;30790;52.030;7.110;2022-11-06T05:54:52;100555.38;;;20.10
41654;BMP280;30790;52.030;7.110;2022-11-06T05:57:17;100557.88;;;20.11
41654;BMP280;30790;52.030;7.110;2022-11-06T05:59:42;100552.66;;;20.10
41654;BMP280;30790;52.030;7.110;2022-11-06T06:02:08;100542.84;;;20.09
41654;BMP280;30790;52.030;7.110;2022-11-06T06:04:33;100551.34;;;20.12
41654;BMP280;30790;52.030;7.110;2022-11-06T06:06:59;100551.84;;;20.09
41654;BMP280;30790;52.030;7.110;2022-11-06T06:09:24;100550.75;;;20.10
41654;BMP280;30790;52.030;7.110;2022-11-06T06:11:50;100545.88;;;20.29
41654;BMP280;30790;52.030;7.110;2022-11-06T06:14:16;100548.28;;;20.42
41654;BMP280;30790;52.030;7.110;2022-11-06T06:16:41;100542.16;;;20.52
41654;BMP280;30790;52.030;7.110;2022-11-06T06:19:07;100539.25;;;20.58
41654;BMP280;30790;52.030;7.110;2022-11-06T06:21:32;100547.25;;;20.65
41654;BMP280;30790;52.030;7.110;2022-11-06T06:23:57;100543.19;;;20.67
41654;BMP280;30790;52.030;7.110;2022-11-06T06:26:22;100530.69;;;20.72
41654;BMP280;30790;52.030;7.110;2022-11-06T06:28:48;100536.88;;;20.84
41654;BMP280;30790;52.030;7.110;2022-11-06T06:31:13;100541.81;;;20.87
41654;BMP280;30790;52.030;7.110;2022-11-06T06:33:39;100530.84;;;20.82
41654;BMP280;30790;52.030;7.110;2022-11-06T06:36:05;100541.56;;;20.88
41654;BMP280;30790;52.030;7.110;2022-11-06T06:38:30;100535.28;;;20.88
41654;BMP280;30790;52.030;7.110;2022-11-06T06:41:02;100541.88;;;20.92
41654;BMP280;30790;52.030;7.110;2022-11-06T06:43:28;100532.94;;;20.96
41654;BMP280;30790;52.030;7.110;2022-11-06T06:46:00;100531.22;;;20.90
41654;BMP280;30790;52.030;7.110;2022-11-06T06:48:26;100543.06;;;21.01
41654;BMP280;30790;52.030;7.110;2022-11-06T06:50:55;100539.91;;;20.87
41654;BMP280;30790;52.030;7.110;2022-11-06T06:53:21;100533.38;;;20.88
41654;BMP280;30790;52.030;7.110;2022-11-06T06:55:47;100530.50;;;20.78
41654;BMP280;30790;52.030;7.110;2022-11-06T06:58:12;100543.47;;;20.88
41654;BMP280;30790;52.030;7.110;2022-11-06T07:00:37;100542.91;;;20.86
41654;BMP280;30790;52.030;7.110;2022-11-06T07:03:02;100551.66;;;20.88
41654;BMP280;30790;52.030;7.110;2022-11-06T07:05:28;100549.69;;;20.83
41654;BMP280;30790;52.030;7.110;2022-11-06T07:07:53;100561.75;;;20.87
41654;BMP280;30790;52.030;7.110;2022-11-06T07:10:18;100568.59;;;20.90
41654;BMP280;30790;52.030;7.110;2022-11-06T07:12:44;100553.31;;;20.89
41654;BMP280;30790;52.030;7.110;2022-11-06T07:15:09;100560.84;;;20.82
41654;BMP280;30790;52.030;7.110;2022-11-06T07:17:35;100556.06;;;20.72
41654;BMP280;30790;52.030;7.110;2022-11-06T07:20:00;100552.91;;;20.80
41654;BMP280;30790;52.030;7.110;2022-11-06T07:22:27;100560.97;;;20.92
41654;BMP280;30790;52.030;7.110;2022-11-06T07:24:52;100560.72;;;20.93
41654;BMP280;30790;52.030;7.110;2022-11-06T07:27:17;100546.78;;;20.90
41654;BMP280;30790;52.030;7.110;2022-11-06T07:29:43;100558.06;;;20.98
41654;BMP280;30790;52.030;7.110;2022-11-06T07:32:08;100550.44;;;21.01
41654;BMP280;30790;52.030;7.110;2022-11-06T07:34:33;100560.84;;;21.04
41654;BMP280;30790;52.030;7.110;2022-11-06T07:36:59;100558.88;;;20.99
41654;BMP280;30790;52.030;7.110;2022-11-06T07:39:24;100560.53;;;21.00
41654;BMP280;30790;52.030;7.110;2022-11-06T07:41:49;100563.78;;;20.97
41654;BMP280;30790;52.030;7.110;2022-11-06T07:44:14;100567.84;;;20.94
41654;BMP280;30790;52.030;7.110;2022-11-06T07:46:40;100554.19;;;20.94
41654;BMP280;30790;52.030;7.110;2022-11-06T07:51:31;100550.75;;;21.04
41654;BMP280;30790;52.030;7.110;2022-11-06T07:53:56;100541.94;;;20.97
41654;BMP280;30790;52.030;7.110;2022-11-06T07:56:21;100546.38;;;21.03
41654;BMP280;30790;52.030;7.110;2022-11-06T07:58:46;100543.13;;;21.06
41654;BMP280;30790;52.030;7.110;2022-11-06T08:01:14;100530.81;;;21.04
41654;BMP280;30790;52.030;7.110;2022-11-06T08:03:39;100525.13;;;21.05
41654;BMP280;30790;52.030;7.110;2022-11-06T08:06:05;100530.06;;;21.08
41654;BMP280;30790;52.030;7.110;2022-11-06T08:08:30;100524.38;;;21.10
41654;BMP280;30790;52.030;7.110;2022-11-06T08:11:01;100530.06;;;21.08
41654;BMP280;30790;52.030;7.110;2022-11-06T08:13:27;100520.81;;;21.09
41654;BMP280;30790;52.030;7.110;2022-11-06T08:15:52;100524.84;;;21.07
41654;BMP280;30790;52.030;7.110;2022-11-06T08:18:17;100515.53;;;21.03
41654;BMP280;30790;52.030;7.110;2022-11-06T08:20:42;100518.50;;;21.01
41654;BMP280;30790;52.030;7.110;2022-11-06T08:23:10;100534.06;;;21.01
41654;BMP280;30790;52.030;7.110;2022-11-06T08:25:36;100529.69;;;20.99
41654;BMP280;30790;52.030;7.110;2022-11-06T08:28:02;100518.78;;;20.99
41654;BMP280;30790;52.030;7.110;2022-11-06T08:32:54;100504.31;;;20.99
41654;BMP280;30790;52.030;7.110;2022-11-06T08:35:20;100494.72;;;20.96
41654;BMP280;30790;52.030;7.110;2022-11-06T08:37:45;100496.06;;;20.94
41654;BMP280;30790;52.030;7.110;2022-11-06T08:40:11;100502.09;;;20.96
41654;BMP280;30790;52.030;7.110;2022-11-06T08:42:36;100497.97;;;20.93
41654;BMP280;30790;52.030;7.110;2022-11-06T08:45:02;100496.63;;;20.96
41654;BMP280;30790;52.030;7.110;2022-11-06T08:47:27;100493.38;;;20.99
41654;BMP280;30790;52.030;7.110;2022-11-06T08:49:53;100490.09;;;20.97
41654;BMP280;30790;52.030;7.110;2022-11-06T08:52:20;100483.31;;;20.99
41654;BMP280;30790;52.030;7.110;2022-11-06T08:54:45;100482.78;;;21.03
41654;BMP280;30790;52.030;7.110;2022-11-06T08:57:10;100470.78;;;21.04
41654;BMP280;30790;52.030;7.110;2022-11-06T08:59:35;100466.41;;;21.03
41654;BMP280;30790;52.030;7.110;2022-11-06T09:02:01;100471.34;;;21.06
41654;BMP280;30790;52.030;7.110;2022-11-06T09:04:26;100462.59;;;21.04
41654;BMP280;30790;52.030;7.110;2022-11-06T09:06:52;100481.44;;;21.05
41654;BMP280;30790;52.030;7.110;2022-11-06T09:09:17;100476.00;;;21.05
41654;BMP280;30790;52.030;7.110;2022-11-06T09:11:43;100472.38;;;20.99
41654;BMP280;30790;52.030;7.110;2022-11-06T09:14:08;100455.50;;;21.03
41654;BMP280;30790;52.030;7.110;2022-11-06T09:16:33;100451.91;;;20.97
41654;BMP280;30790;52.030;7.110;2022-11-06T09:18:58;100452.75;;;21.03
41654;BMP280;30790;52.030;7.110;2022-11-06T09:21:24;100461.25;;;21.06
41654;BMP280;30790;52.030;7.110;2022-11-06T09:23:49;100453.03;;;21.01
41654;BMP280;30790;52.030;7.110;2022-11-06T09:26:15;100449.84;;;21.09
41654;BMP280;30790;52.030;7.110;2022-11-06T09:28:40;100438.28;;;21.02
41654;BMP280;30790;52.030;7.110;2022-11-06T09:31:06;100452.59;;;21.09
41654;BMP280;30790;52.030;7.110;2022-11-06T09:33:32;100451.50;;;21.10
41654;BMP280;30790;52.030;7.110;2022-11-06T09:35:58;100432.28;;;21.00
41654;BMP280;30790;52.030;7.110;2022-11-06T09:38:23;100431.19;;;21.01
41654;BMP280;30790;52.030;7.110;2022-11-06T09:40:54;100436.13;;;21.04
41654;BMP280;30790;52.030;7.110;2022-11-06T09:43:48;100451.72;;;21.09
41654;BMP280;30790;52.030;7.110;2022-11-06T09:46:26;100437.25;;;21.08
41654;BMP280;30790;52.030;7.110;2022-11-06T09:48:57;100449.22;;;21.02
41654;BMP280;30790;52.030;7.110;2022-11-06T09:51:35;100447.13;;;21.09
41654;BMP280;30790;52.030;7.110;2022-11-06T09:56:47;100440.00;;;21.08
41654;BMP280;30790;52.030;7.110;2022-11-06T09:59:17;100428.59;;;21.11
41654;BMP280;30790;52.030;7.110;2022-11-06T10:01:52;100428.25;;;21.08
41654;BMP280;30790;52.030;7.110;2022-11-06T10:04:33;100430.16;;;21.07
41654;BMP280;30790;52.030;7.110;2022-11-06T10:07:00;100421.72;;;21.09
41654;BMP280;30790;52.030;7.110;2022-11-06T10:09:25;100429.03;;;21.03
41654;BMP280;30790;52.030;7.110;2022-11-06T10:12:16;100427.38;;;21.02
41654;BMP280;30790;52.030;7.110;2022-11-06T10:14:55;100432.06;;;21.07
41654;BMP280;30790;52.030;7.110;2022-11-06T10:17:33;100430.06;;;20.97
41654;BMP280;30790;52.030;7.110;2022-11-06T10:20:19;100418.31;;;20.96
41654;BMP280;30790;52.030;7.110;2022-11-06T10:25:38;100425.53;;;21.08
41654;BMP280;30790;52.030;7.110;2022-11-06T10:34:16;100418.38;;;21.02
41654;BMP280;30790;52.030;7.110;2022-11-06T10:37:03;100412.56;;;20.93
41654;BMP280;30790;52.030;7.110;2022-11-06T10:39:31;100407.63;;;20.90
41654;BMP280;30790;52.030;7.110;2022-11-06T10:42:30;100415.28;;;20.93
41654;BMP280;30790;52.030;7.110;2022-11-06T10:44:59;100402.44;;;20.88
41654;BMP280;30790;52.030;7.110;2022-11-06T10:47:32;100405.50;;;20.97
41654;BMP280;30790;52.030;7.110;2022-11-06T10:50:00;100411.53;;;20.99
41654;BMP280;30790;52.030;7.110;2022-11-06T10:52:55;100401.19;;;21.01
41654;BMP280;30790;52.030;7.110;2022-11-06T10:58:09;100388.66;;;21.05
41654;BMP280;30790;52.030;7.110;2022-11-06T11:00:36;100378.81;;;21.04
41654;BMP280;30790;52.030;7.110;2022-11-06T11:03:05;100376.16;;;21.09
41654;BMP280;30790;52.030;7.110;2022-11-06T11:05:43;100367.97;;;21.09
41654;BMP280;30790;52.030;7.110;2022-11-06T11:08:31;100357.88;;;21.10
41654;BMP280;30790;52.030;7.110;2022-11-06T11:13:49;100356.81;;;21.11
41654;BMP280;30790;52.030;7.110;2022-11-06T11:16:21;100341.75;;;21.08
41654;BMP280;30790;52.030;7.110;2022-11-06T11:18:48;100357.06;;;21.09
41654;BMP280;30790;52.030;7.110;2022-11-06T11:24:03;100334.38;;;21.09
41654;BMP280;30790;52.030;7.110;2022-11-06T11:26:31;100338.53;;;21.11
41654;BMP280;30790;52.030;7.110;2022-11-06T11:28:59;100331.41;;;21.10
41654;BMP280;30790;52.030;7.110;2022-11-06T11:31:32;100328.44;;;21.12
41654;BMP280;30790;52.030;7.110;2022-11-06T11:34:01;100331.41;;;21.10
41654;BMP280;30790;52.030;7.110;2022-11-06T11:36:46;100323.47;;;21.09
41654;BMP280;30790;52.030;7.110;2022-11-06T11:39:14;100316.13;;;21.09
41654;BMP280;30790;52.030;7.110;2022-11-06T11:41:40;100308.16;;;21.08
41654;BMP280;30790;52.030;7.110;2022-11-06T11:44:14;100295.06;;;21.05
41654;BMP280;30790;52.030;7.110;2022-11-06T11:49:32;100291.91;;;20.86
41654;BMP280;30790;52.030;7.110;2022-11-06T11:52:03;100274.84;;;20.68
41654;BMP280;30790;52.030;7.110;2022-11-06T11:54:33;100264.44;;;20.65
41654;BMP280;30790;52.030;7.110;2022-11-06T11:57:04;100271.09;;;20.80
41654;BMP280;30790;52.030;7.110;2022-11-06T11:59:41;100261.78;;;20.76
41654;BMP280;30790;52.030;7.110;2022-11-06T12:02:33;100265.38;;;20.81
41654;BMP280;30790;52.030;7.110;2022-11-06T12:05:04;100259.06;;;20.76
41654;BMP280;30790;52.030;7.110;2022-11-06T12:07:40;100249.25;;;20.75
41654;BMP280;30790;52.030;7.110;2022-11-06T12:10:31;100250.03;;;20.70
41654;BMP280;30790;52.030;7.110;2022-11-06T12:12:59;100247.78;;;20.62
41654;BMP280;30790;52.030;7.110;2022-11-06T12:18:21;100232.69;;;20.54
41654;BMP280;30790;52.030;7.110;2022-11-06T12:26:37;100228.44;;;20.63
41654;BMP280;30790;52.030;7.110;2022-11-06T12:30:01;100232.28;;;20.67
41654;BMP280;30790;52.030;7.110;2022-11-06T12:37:38;100208.31;;;20.75
41654;BMP280;30790;52.030;7.110;2022-11-06T12:40:18;100204.00;;;20.79
41654;BMP280;30790;52.030;7.110;2022-11-06T12:54:04;100176.22;;;20.82
41654;BMP280;30790;52.030;7.110;2022-11-06T12:56:45;100171.59;;;20.82
41654;BMP280;30790;52.030;7.110;2022-11-06T12:59:28;100154.41;;;20.82
41654;BMP280;30790;52.030;7.110;2022-11-06T13:10:14;100141.78;;;20.76
41654;BMP280;30790;52.030;7.110;2022-11-06T13:18:35;100126.44;;;20.64
41654;BMP280;30790;52.030;7.110;2022-11-06T13:21:10;100131.06;;;20.64
41654;BMP280;30790;52.030;7.110;2022-11-06T13:23:41;100145.53;;;20.64
41654;BMP280;30790;52.030;7.110;2022-11-06T13:26:16;100144.41;;;20.60
41654;BMP280;30790;52.030;7.110;2022-11-06T13:28:51;100143.84;;;20.58
41654;BMP280;30790;52.030;7.110;2022-11-06T13:31:23;100131.25;;;20.52
41654;BMP280;30790;52.030;7.110;2022-11-06T13:33:53;100130.47;;;20.57
41654;BMP280;30790;52.030;7.110;2022-11-06T13:36:21;100130.75;;;20.55
41654;BMP280;30790;52.030;7.110;2022-11-06T13:38:53;100134.28;;;20.56
41654;BMP280;30790;52.030;7.110;2022-11-06T13:41:22;100134.53;;;20.54
41654;BMP280;30790;52.030;7.110;2022-11-06T13:46:26;100147.59;;;20.52
41654;BMP280;30790;52.030;7.110;2022-11-06T13:54:23;100132.06;;;20.53
41654;BMP280;30790;52.030;7.110;2022-11-06T13:59:55;100115.97;;;20.51
41654;BMP280;30790;52.030;7.110;2022-11-06T14:02:47;100120.59;;;20.51
41654;BMP280;30790;52.030;7.110;2022-11-06T14:08:09;100117.31;;;20.49
41654;BMP280;30790;52.030;7.110;2022-11-06T14:10:37;100124.16;;;20.51
41654;BMP280;30790;52.030;7.110;2022-11-06T14:13:12;100123.59;;;20.49
41654;BMP280;30790;52.030;7.110;2022-11-06T14:15:39;100129.31;;;20.48
41654;BMP280;30790;52.030;7.110;2022-11-06T14:18:13;100123.59;;;20.49
41654;BMP280;30790;52.030;7.110;2022-11-06T14:20:44;100119.19;;;20.43
41654;BMP280;30790;52.030;7.110;2022-11-06T14:26:03;100120.81;;;20.44
41654;BMP280;30790;52.030;7.110;2022-11-06T14:28:29;100120.00;;;20.44
41654;BMP280;30790;52.030;7.110;2022-11-06T14:30:55;100115.91;;;20.41
41654;BMP280;30790;52.030;7.110;2022-11-06T14:36:35;100114.81;;;20.42
41654;BMP280;30790;52.030;7.110;2022-11-06T14:38:59;100098.47;;;20.42
41654;BMP280;30790;52.030;7.110;2022-11-06T14:46:37;100094.31;;;20.40
41654;BMP280;30790;52.030;7.110;2022-11-06T14:49:37;100094.09;;;20.41
41654;BMP280;30790;52.030;7.110;2022-11-06T14:52:08;100092.44;;;20.40
41654;BMP280;30790;52.030;7.110;2022-11-06T14:54:36;100096.22;;;20.39
41654;BMP280;30790;52.030;7.110;2022-11-06T14:57:06;100099.22;;;20.37
41654;BMP280;30790;52.030;7.110;2022-11-06T14:59:37;100091.03;;;20.37
41654;BMP280;30790;52.030;7.110;2022-11-06T15:02:22;100100.84;;;20.38
41654;BMP280;30790;52.030;7.110;2022-11-06T15:04:58;100092.94;;;20.37
41654;BMP280;30790;52.030;7.110;2022-11-06T15:15:43;100085.84;;;20.36
41654;BMP280;30790;52.030;7.110;2022-11-06T15:18:11;100093.75;;;20.37
41654;BMP280;30790;52.030;7.110;2022-11-06T15:20:39;100086.41;;;20.38
41654;BMP280;30790;52.030;7.110;2022-11-06T15:23:21;100086.16;;;20.40
41654;BMP280;30790;52.030;7.110;2022-11-06T15:26:01;100082.72;;;20.54
41654;BMP280;30790;52.030;7.110;2022-11-06T15:28:31;100080.09;;;20.70
41654;BMP280;30790;52.030;7.110;2022-11-06T15:31:13;100078.84;;;20.82
41654;BMP280;30790;52.030;7.110;2022-11-06T15:34:03;100070.69;;;20.92
41654;BMP280;30790;52.030;7.110;2022-11-06T15:36:36;100072.06;;;20.95
41654;BMP280;30790;52.030;7.110;2022-11-06T15:39:22;100062.81;;;21.01
41654;BMP280;30790;52.030;7.110;2022-11-06T15:41:48;100066.09;;;20.98
41654;BMP280;30790;52.030;7.110;2022-11-06T15:44:18;100062.28;;;21.04
41654;BMP280;30790;52.030;7.110;2022-11-06T15:46:56;100060.16;;;21.11
41654;BMP280;30790;52.030;7.110;2022-11-06T15:49:23;100062.34;;;21.09
41654;BMP280;30790;52.030;7.110;2022-11-06T15:52:00;100066.16;;;21.13
41654;BMP280;30790;52.030;7.110;2022-11-06T15:54:40;100061.25;;;21.15
41654;BMP280;30790;52.030;7.110;2022-11-06T15:59:37;100053.09;;;21.20
41654;BMP280;30790;52.030;7.110;2022-11-06T16:02:08;100048.19;;;21.22
41654;BMP280;30790;52.030;7.110;2022-11-06T16:04:37;100045.44;;;21.22
41654;BMP280;30790;52.030;7.110;2022-11-06T16:07:03;100051.22;;;21.26
41654;BMP280;30790;52.030;7.110;2022-11-06T16:09:30;100046.03;;;21.29
41654;BMP280;30790;52.030;7.110;2022-11-06T16:11:57;100044.41;;;21.28
41654;BMP280;30790;52.030;7.110;2022-11-06T16:14:23;100048.50;;;21.31
41654;BMP280;30790;52.030;7.110;2022-11-06T16:16:53;100055.31;;;21.28
41654;BMP280;30790;52.030;7.110;2022-11-06T16:19:27;100063.25;;;21.30
41654;BMP280;30790;52.030;7.110;2022-11-06T16:22:02;100065.69;;;21.26
41654;BMP280;30790;52.030;7.110;2022-11-06T16:24:39;100056.94;;;21.24
41654;BMP280;30790;52.030;7.110;2022-11-06T16:27:06;100041.91;;;21.22
41654;BMP280;30790;52.030;7.110;2022-11-06T16:29:32;100042.72;;;21.22